createdAt,value
2023-05-19T00:01:37.706Z,100088.84
2023-05-19T00:04:27.634Z,100086.69
2023-05-19T00:07:21.710Z,100087.30
2023-05-19T00:10:11.109Z,100088.30
2023-05-19T00:12:59.925Z,100084.45
2023-05-19T00:15:48.737Z,100082.34
2023-05-19T00:18:37.256Z,100082.95
2023-05-19T00:21:26.457Z,100084.67
2023-05-19T00:24:14.925Z,100086.13
2023-05-19T00:27:03.628Z,100082.85
2023-05-19T00:29:52.229Z,100084.04
2023-05-19T00:32:41.041Z,100081.99
2023-05-19T00:35:29.781Z,100082.08
2023-05-19T00:38:19.819Z,100077.95
2023-05-19T00:41:08.688Z,100075.52
2023-05-19T00:43:57.668Z,100075.21
2023-05-19T00:46:46.530Z,100076.50
2023-05-19T00:49:36.119Z,100074.53
2023-05-19T00:52:24.668Z,100076.39
2023-05-19T00:55:14.678Z,100077.35
2023-05-19T00:58:05.502Z,100078.90
2023-05-19T01:00:56.115Z,100075.45
2023-05-19T01:03:45.435Z,100074.98
2023-05-19T01:06:34.681Z,100072.63
2023-05-19T01:09:23.384Z,100073.30
2023-05-19T01:12:11.959Z,100070.78
2023-05-19T01:15:01.455Z,100069.63
2023-05-19T01:18:01.407Z,100071.14
2023-05-19T01:21:06.952Z,100073.05
2023-05-19T01:24:22.932Z,100073.07
2023-05-19T01:27:48.428Z,100072.05
2023-05-19T01:30:40.732Z,100072.23
2023-05-19T01:33:31.226Z,100070.73
2023-05-19T01:36:22.531Z,100070.73
2023-05-19T01:39:11.947Z,100066.54
2023-05-19T01:42:01.759Z,100065.34
2023-05-19T01:44:51.403Z,100063.05
2023-05-19T01:47:42.892Z,100063.45
2023-05-19T01:50:32.831Z,100061.67
2023-05-19T01:53:21.718Z,100058.60
2023-05-19T01:56:10.584Z,100058.24
2023-05-19T01:59:09.714Z,100054.29
2023-05-19T02:02:03.214Z,100056.24
2023-05-19T02:05:00.469Z,100050.78
2023-05-19T02:07:59.165Z,100050.02
2023-05-19T02:10:54.056Z,100048.16
2023-05-19T02:13:46.680Z,100048.64
2023-05-19T02:16:37.270Z,100043.10
2023-05-19T02:19:28.220Z,100043.45
2023-05-19T02:22:17.127Z,100039.19
2023-05-19T02:25:06.045Z,100040.98
2023-05-19T02:27:54.759Z,100036.88
2023-05-19T02:30:43.328Z,100040.52
2023-05-19T02:33:31.830Z,100035.95
2023-05-19T02:36:20.387Z,100039.69
2023-05-19T02:39:09.977Z,100036.41
2023-05-19T02:41:58.554Z,100030.54
2023-05-19T02:44:48.683Z,100033.04
2023-05-19T02:47:38.525Z,100033.95
2023-05-19T02:50:28.041Z,100034.36
2023-05-19T02:53:16.702Z,100030.48
2023-05-19T02:56:05.882Z,100032.45
2023-05-19T02:58:54.420Z,100033.60
2023-05-19T03:01:43.046Z,100032.14
2023-05-19T03:04:31.773Z,100034.20
2023-05-19T03:07:25.062Z,100029.43
2023-05-19T03:10:13.755Z,100026.39
2023-05-19T03:13:02.276Z,100026.46
2023-05-19T03:15:51.253Z,100028.60
2023-05-19T03:18:41.776Z,100033.52
2023-05-19T03:21:32.065Z,100031.33
2023-05-19T03:24:20.993Z,100030.44
2023-05-19T03:27:09.758Z,100028.41
2023-05-19T03:29:58.917Z,100030.15
2023-05-19T03:32:47.853Z,100026.43
2023-05-19T03:35:37.044Z,100033.27
2023-05-19T03:38:26.548Z,100034.02
2023-05-19T03:41:18.614Z,100032.30
2023-05-19T03:44:07.338Z,100031.35
2023-05-19T03:46:56.006Z,100036.81
2023-05-19T03:50:02.810Z,100036.12
2023-05-19T03:53:12.271Z,100038.23
2023-05-19T03:56:02.616Z,100036.92
2023-05-19T03:58:51.144Z,100029.80
2023-05-19T04:01:40.178Z,100028.48
2023-05-19T04:04:28.909Z,100032.43
2023-05-19T04:07:17.436Z,100028.41
2023-05-19T04:10:06.730Z,100027.55
2023-05-19T04:12:55.364Z,100029.27
2023-05-19T04:15:43.996Z,100026.27
2023-05-19T04:18:32.609Z,100029.58
2023-05-19T04:21:22.442Z,100032.08
2023-05-19T04:24:11.038Z,100034.28
2023-05-19T04:27:02.549Z,100037.63
2023-05-19T04:29:51.204Z,100033.56
2023-05-19T04:32:41.437Z,100030.27
2023-05-19T04:35:30.166Z,100030.73
2023-05-19T04:38:20.275Z,100035.90
2023-05-19T04:41:12.316Z,100030.80
2023-05-19T04:44:01.828Z,100033.69
2023-05-19T04:46:54.372Z,100042.33
2023-05-19T04:49:44.589Z,100036.67
2023-05-19T04:52:33.481Z,100032.98
2023-05-19T04:55:23.124Z,100032.20
2023-05-19T04:58:12.062Z,100030.71
2023-05-19T05:01:00.792Z,100029.66
2023-05-19T05:03:50.073Z,100024.85
2023-05-19T05:06:38.775Z,100021.58
2023-05-19T05:09:28.102Z,100028.59
2023-05-19T05:12:19.111Z,100027.05
2023-05-19T05:15:09.094Z,100030.08
2023-05-19T05:17:58.638Z,100028.73
2023-05-19T05:20:48.392Z,100025.94
2023-05-19T05:23:39.369Z,100027.30
2023-05-19T05:26:29.958Z,100029.58
2023-05-19T05:29:18.563Z,100023.67
2023-05-19T05:32:08.213Z,100023.23
2023-05-19T05:34:57.084Z,100025.55
2023-05-19T05:37:46.723Z,100027.79
2023-05-19T05:40:35.337Z,100028.34
2023-05-19T05:43:24.783Z,100019.80
2023-05-19T05:46:17.554Z,100022.11
2023-05-19T05:49:06.608Z,100025.64
2023-05-19T05:52:05.480Z,100026.73
2023-05-19T05:54:57.413Z,100033.41
2023-05-19T05:57:46.378Z,100032.10
2023-05-19T06:00:35.157Z,100031.80
2023-05-19T06:03:24.645Z,100030.68
2023-05-19T06:06:14.285Z,100032.09
2023-05-19T06:09:03.137Z,100037.36
2023-05-19T06:11:52.136Z,100036.90
2023-05-19T06:14:40.920Z,100041.98
2023-05-19T06:17:41.128Z,100041.98
2023-05-19T06:20:29.923Z,100045.41
2023-05-19T06:23:19.672Z,100054.84
2023-05-19T06:26:08.295Z,100053.77
2023-05-19T06:28:57.114Z,100055.26
2023-05-19T06:31:47.722Z,100057.94
2023-05-19T06:34:40.453Z,100059.61
2023-05-19T06:37:29.255Z,100058.41
2023-05-19T06:40:18.804Z,100061.46
2023-05-19T06:43:07.612Z,100059.88
2023-05-19T06:46:13.726Z,100063.05
2023-05-19T06:49:02.527Z,100062.42
2023-05-19T06:51:54.351Z,100070.02
2023-05-19T06:54:43.035Z,100063.05
2023-05-19T06:57:31.885Z,100064.36
2023-05-19T07:00:22.119Z,100062.85
2023-05-19T07:03:13.216Z,100063.86
2023-05-19T07:06:02.194Z,100065.45
2023-05-19T07:08:50.900Z,100064.84
2023-05-19T07:11:40.433Z,100061.24
2023-05-19T07:14:29.643Z,100061.58
2023-05-19T07:17:18.323Z,100059.50
2023-05-19T07:20:10.104Z,100057.70
2023-05-19T07:22:58.949Z,100057.00
2023-05-19T07:25:47.549Z,100058.33
2023-05-19T07:28:36.214Z,100062.30
2023-05-19T07:31:24.898Z,100056.48
2023-05-19T07:34:13.601Z,100062.56
2023-05-19T07:37:02.171Z,100070.59
2023-05-19T07:39:50.823Z,100064.95
2023-05-19T07:42:39.470Z,100068.92
2023-05-19T07:45:27.962Z,100072.94
2023-05-19T07:48:18.827Z,100074.24
2023-05-19T07:51:10.153Z,100071.50
2023-05-19T07:53:58.689Z,100074.20
2023-05-19T07:56:48.271Z,100079.48
2023-05-19T07:59:37.099Z,100072.39
2023-05-19T08:02:25.903Z,100072.54
2023-05-19T08:05:15.175Z,100064.84
2023-05-19T08:08:04.288Z,100060.02
2023-05-19T08:10:52.847Z,100056.10
2023-05-19T08:13:41.712Z,100052.13
2023-05-19T08:16:30.408Z,100054.70
2023-05-19T08:19:19.179Z,100051.08
2023-05-19T08:22:07.752Z,100051.25
2023-05-19T08:24:57.017Z,100044.20
2023-05-19T08:27:46.053Z,100047.54
2023-05-19T08:30:34.884Z,100054.22
2023-05-19T08:33:23.661Z,100057.83
2023-05-19T08:36:12.180Z,100049.88
2023-05-19T08:39:00.895Z,100050.68
2023-05-19T08:41:49.834Z,100050.80
2023-05-19T08:44:40.103Z,100057.84
2023-05-19T08:47:29.589Z,100058.73
2023-05-19T08:50:24.924Z,100064.76
2023-05-19T08:53:33.356Z,100068.45
2023-05-19T08:56:25.010Z,100065.14
2023-05-19T08:59:15.301Z,100062.56
2023-05-19T09:02:04.717Z,100064.80
2023-05-19T09:04:53.694Z,100063.56
2023-05-19T09:07:43.839Z,100056.55
2023-05-19T09:10:32.419Z,100059.09
2023-05-19T09:13:21.130Z,100061.37
2023-05-19T09:16:09.842Z,100058.17
2023-05-19T09:18:58.818Z,100056.23
2023-05-19T09:21:59.640Z,100056.09
2023-05-19T09:24:48.578Z,100049.49
2023-05-19T09:27:37.725Z,100046.00
2023-05-19T09:30:26.388Z,100044.85
2023-05-19T09:33:19.873Z,100043.21
2023-05-19T09:36:10.861Z,100046.94
2023-05-19T09:38:59.471Z,100047.39
2023-05-19T09:41:52.060Z,100049.12
2023-05-19T09:44:41.519Z,100043.91
2023-05-19T09:47:41.478Z,100048.75
2023-05-19T09:50:30.927Z,100053.05
2023-05-19T09:53:19.662Z,100058.58
2023-05-19T09:56:08.851Z,100060.45
2023-05-19T09:58:57.697Z,100064.66
2023-05-19T10:01:47.236Z,100068.54
2023-05-19T10:04:36.429Z,100065.02
2023-05-19T10:07:25.034Z,100066.45
2023-05-19T10:10:15.543Z,100064.48
2023-05-19T10:13:05.102Z,100064.88
2023-05-19T10:15:58.755Z,100063.80
2023-05-19T10:18:51.555Z,100059.91
2023-05-19T10:21:40.082Z,100058.79
2023-05-19T10:24:28.601Z,100058.50
2023-05-19T10:27:18.463Z,100060.65
2023-05-19T10:30:20.286Z,100063.95
2023-05-19T10:33:13.996Z,100066.84
2023-05-19T10:36:15.905Z,100059.53
2023-05-19T10:39:06.744Z,100062.14
2023-05-19T10:42:07.298Z,100062.84
2023-05-19T10:45:05.601Z,100061.77
2023-05-19T10:47:54.756Z,100060.73
2023-05-19T10:50:45.980Z,100059.64
2023-05-19T10:53:35.111Z,100058.10
2023-05-19T10:56:33.979Z,100052.59
2023-05-19T10:59:33.628Z,100049.48
2023-05-19T11:02:44.365Z,100049.67
2023-05-19T11:05:45.228Z,100051.96
2023-05-19T11:08:34.984Z,100048.70
2023-05-19T11:11:56.709Z,100053.60
2023-05-19T11:14:45.379Z,100053.60
2023-05-19T11:17:35.256Z,100055.02
2023-05-19T11:20:26.362Z,100049.48
2023-05-19T11:23:18.172Z,100048.77
2023-05-19T11:26:09.046Z,100048.04
2023-05-19T11:28:58.144Z,100049.61
2023-05-19T11:31:48.730Z,100049.60
2023-05-19T11:34:38.489Z,100045.61
2023-05-19T11:37:29.108Z,100054.13
2023-05-19T11:40:18.056Z,100053.20
2023-05-19T11:43:06.706Z,100054.98
2023-05-19T11:45:56.075Z,100053.93
2023-05-19T11:48:47.491Z,100057.44
2023-05-19T11:51:36.351Z,100058.75
2023-05-19T11:54:36.586Z,100059.89
2023-05-19T11:57:25.232Z,100057.59
2023-05-19T12:00:14.784Z,100056.08
2023-05-19T12:03:03.431Z,100057.16
2023-05-19T12:05:52.330Z,100056.46
2023-05-19T12:08:41.054Z,100055.89
2023-05-19T12:11:29.658Z,100057.77
2023-05-19T12:14:18.704Z,100057.48
2023-05-19T12:17:12.411Z,100052.84
2023-05-19T12:20:01.589Z,100050.55
2023-05-19T12:22:51.197Z,100049.61
2023-05-19T12:25:39.944Z,100048.70
2023-05-19T12:28:31.241Z,100044.15
2023-05-19T12:31:24.006Z,100047.66
2023-05-19T12:34:13.211Z,100047.34
2023-05-19T12:37:02.725Z,100049.77
2023-05-19T12:39:51.305Z,100050.02
2023-05-19T12:42:45.357Z,100054.16
2023-05-19T12:45:38.673Z,100050.15
2023-05-19T12:48:28.628Z,100052.16
2023-05-19T12:51:18.920Z,100048.84
2023-05-19T12:54:08.762Z,100046.27
2023-05-19T12:56:58.848Z,100046.63
2023-05-19T12:59:48.382Z,100045.63
2023-05-19T13:02:55.982Z,100045.73
2023-05-19T13:05:48.277Z,100042.45
2023-05-19T13:08:39.410Z,100045.07
2023-05-19T13:11:28.018Z,100046.95
2023-05-19T13:14:18.626Z,100047.98
2023-05-19T13:17:07.273Z,100047.16
2023-05-19T13:19:55.930Z,100044.91
2023-05-19T13:22:44.749Z,100044.96
2023-05-19T13:25:34.421Z,100047.11
2023-05-19T13:28:24.018Z,100043.64
2023-05-19T13:31:15.998Z,100045.65
2023-05-19T13:34:09.569Z,100042.54
2023-05-19T13:36:59.743Z,100042.63
2023-05-19T13:39:51.310Z,100042.63
2023-05-19T13:42:41.142Z,100043.62
2023-05-19T13:45:33.989Z,100046.55
2023-05-19T13:48:22.579Z,100044.52
2023-05-19T13:51:12.222Z,100042.60
2023-05-19T13:54:00.768Z,100041.77
2023-05-19T13:56:49.327Z,100044.37
2023-05-19T13:59:48.904Z,100040.69
2023-05-19T14:02:46.561Z,100038.32
2023-05-19T14:05:35.717Z,100031.30
2023-05-19T14:08:24.326Z,100030.56
2023-05-19T14:11:20.213Z,100029.42
2023-05-19T14:14:09.405Z,100029.74
2023-05-19T14:16:59.624Z,100025.80
2023-05-19T14:19:48.120Z,100027.42
2023-05-19T14:22:36.787Z,100031.52
2023-05-19T14:25:25.573Z,100030.84
2023-05-19T14:28:14.196Z,100030.59
2023-05-19T14:31:03.185Z,100032.55
2023-05-19T14:33:52.361Z,100032.89
2023-05-19T14:36:42.903Z,100033.85
2023-05-19T14:39:31.522Z,100036.30
2023-05-19T14:42:20.233Z,100037.40
2023-05-19T14:45:09.383Z,100037.44
2023-05-19T14:47:57.972Z,100038.44
2023-05-19T14:50:48.914Z,100036.23
2023-05-19T14:53:37.534Z,100034.82
2023-05-19T14:56:26.297Z,100034.86
2023-05-19T14:59:14.851Z,100034.08
2023-05-19T15:02:03.431Z,100034.56
2023-05-19T15:04:52.438Z,100034.70
2023-05-19T15:07:41.021Z,100038.88
2023-05-19T15:10:30.664Z,100036.36
2023-05-19T15:13:19.398Z,100039.81
2023-05-19T15:16:17.533Z,100037.70
2023-05-19T15:19:06.804Z,100035.33
2023-05-19T15:21:55.461Z,100038.21
2023-05-19T15:24:44.294Z,100035.52
2023-05-19T15:27:35.116Z,100033.12
2023-05-19T15:30:23.997Z,100035.02
2023-05-19T15:33:12.839Z,100034.30
2023-05-19T15:36:01.576Z,100036.86
2023-05-19T15:38:50.187Z,100040.98
2023-05-19T15:41:39.306Z,100035.46
2023-05-19T15:44:29.025Z,100033.59
2023-05-19T15:47:17.755Z,100032.60
2023-05-19T15:50:06.791Z,100035.75
2023-05-19T15:52:55.533Z,100029.32
2023-05-19T15:55:44.129Z,100030.61
2023-05-19T15:58:32.705Z,100026.52
2023-05-19T16:01:21.740Z,100026.55
2023-05-19T16:04:10.535Z,100025.79
2023-05-19T16:06:59.195Z,100027.52
2023-05-19T16:09:48.763Z,100022.81
2023-05-19T16:12:37.824Z,100020.88
2023-05-19T16:15:26.565Z,100025.17
2023-05-19T16:18:16.069Z,100020.06
2023-05-19T16:21:05.086Z,100017.79
2023-05-19T16:23:53.603Z,100021.92
2023-05-19T16:26:42.157Z,100024.60
2023-05-19T16:29:30.751Z,100026.30
2023-05-19T16:32:20.747Z,100028.79
2023-05-19T16:35:10.429Z,100028.64
2023-05-19T16:37:59.000Z,100029.14
2023-05-19T16:40:47.814Z,100028.03
2023-05-19T16:43:36.401Z,100024.64
2023-05-19T16:46:25.004Z,100026.34
2023-05-19T16:52:18.970Z,100026.08
2023-05-19T16:55:07.888Z,100027.25
2023-05-19T16:57:56.404Z,100028.00
2023-05-19T17:00:45.066Z,100023.72
2023-05-19T17:03:35.705Z,100028.05
2023-05-19T17:06:24.507Z,100032.19
2023-05-19T17:09:13.219Z,100034.38
2023-05-19T17:12:01.776Z,100035.46
2023-05-19T17:14:52.220Z,100033.55
2023-05-19T17:17:41.040Z,100041.27
2023-05-19T17:20:29.683Z,100041.93
2023-05-19T17:23:18.360Z,100045.40
2023-05-19T17:26:06.888Z,100045.95
2023-05-19T17:28:55.603Z,100042.18
2023-05-19T17:31:44.491Z,100043.79
2023-05-19T17:34:33.114Z,100041.81
2023-05-19T17:37:25.632Z,100040.56
2023-05-19T17:40:14.317Z,100042.48
2023-05-19T17:43:02.881Z,100048.46
2023-05-19T17:45:51.730Z,100048.63
2023-05-19T17:48:41.809Z,100047.11
2023-05-19T17:51:34.661Z,100047.06
2023-05-19T17:54:28.357Z,100045.58
2023-05-19T17:57:18.310Z,100044.34
2023-05-19T18:00:07.711Z,100046.62
2023-05-19T18:02:57.673Z,100046.86
2023-05-19T18:05:47.149Z,100044.45
2023-05-19T18:08:37.503Z,100049.06
2023-05-19T18:11:26.619Z,100048.40
2023-05-19T18:14:15.192Z,100048.11
2023-05-19T18:17:04.343Z,100049.15
2023-05-19T18:19:54.557Z,100047.98
2023-05-19T18:22:43.422Z,100051.67
2023-05-19T18:25:32.021Z,100052.54
2023-05-19T18:28:20.710Z,100056.75
2023-05-19T18:31:15.663Z,100056.02
2023-05-19T18:34:04.694Z,100059.02
2023-05-19T18:36:53.610Z,100059.16
2023-05-19T18:39:42.248Z,100063.46
2023-05-19T18:42:30.832Z,100065.00
2023-05-19T18:45:19.466Z,100064.88
2023-05-19T18:48:08.209Z,100068.11
2023-05-19T18:50:57.268Z,100072.69
2023-05-19T18:53:48.682Z,100070.13
2023-05-19T18:56:37.508Z,100077.70
2023-05-19T18:59:26.118Z,100079.23
2023-05-19T19:02:14.649Z,100077.98
2023-05-19T19:05:04.149Z,100076.02
2023-05-19T19:07:53.386Z,100078.91
2023-05-19T19:10:42.588Z,100077.55
2023-05-19T19:13:31.194Z,100075.30
2023-05-19T19:16:19.749Z,100078.09
2023-05-19T19:19:08.404Z,100079.70
2023-05-19T19:21:57.105Z,100076.52
2023-05-19T19:24:45.805Z,100081.98
2023-05-19T19:27:35.718Z,100079.00
2023-05-19T19:30:25.594Z,100079.20
2023-05-19T19:33:14.188Z,100081.69
2023-05-19T19:36:03.005Z,100083.67
2023-05-19T19:38:51.533Z,100082.70
2023-05-19T19:41:40.990Z,100082.14
2023-05-19T19:44:29.552Z,100081.11
2023-05-19T19:47:18.116Z,100081.57
2023-05-19T19:50:08.110Z,100085.66
2023-05-19T19:52:59.128Z,100089.83
2023-05-19T19:56:01.573Z,100086.81
2023-05-19T19:58:50.898Z,100091.23
2023-05-19T20:01:41.932Z,100094.59
2023-05-19T20:04:30.591Z,100093.05
2023-05-19T20:07:20.808Z,100090.77
2023-05-19T20:10:09.858Z,100090.52
2023-05-19T20:12:59.329Z,100093.75
2023-05-19T20:15:48.055Z,100096.27
2023-05-19T20:18:36.655Z,100100.33
2023-05-19T20:21:25.249Z,100099.66
2023-05-19T20:24:13.973Z,100102.14
2023-05-19T20:27:02.597Z,100102.93
2023-05-19T20:29:51.176Z,100100.29
2023-05-19T20:32:40.158Z,100099.96
2023-05-19T20:35:28.728Z,100100.95
2023-05-19T20:38:17.227Z,100103.14
2023-05-19T20:41:05.858Z,100100.45
2023-05-19T20:43:55.086Z,100104.92
2023-05-19T20:46:43.627Z,100098.52
2023-05-19T20:49:32.262Z,100100.50
2023-05-19T20:52:21.022Z,100094.95
2023-05-19T20:55:10.189Z,100089.80
2023-05-19T20:57:58.745Z,100089.46
2023-05-19T21:00:48.782Z,100090.19
2023-05-19T21:03:37.337Z,100092.23
2023-05-19T21:06:26.036Z,100085.99
2023-05-19T21:09:14.847Z,100084.83
2023-05-19T21:12:03.689Z,100084.84
2023-05-19T21:14:53.544Z,100086.77
2023-05-19T21:17:42.131Z,100089.51
2023-05-19T21:20:30.844Z,100088.76
2023-05-19T21:23:19.486Z,100090.05
2023-05-19T21:26:08.032Z,100092.61
2023-05-19T21:28:56.612Z,100091.70
2023-05-19T21:31:45.163Z,100093.30
2023-05-19T21:34:33.806Z,100092.86
2023-05-19T21:37:22.398Z,100091.61
2023-05-19T21:40:11.699Z,100091.91
2023-05-19T21:43:00.270Z,100090.25
2023-05-19T21:45:48.809Z,100094.00
2023-05-19T21:48:37.574Z,100094.84
2023-05-19T21:51:26.097Z,100092.77
2023-05-19T21:54:14.675Z,100083.26
2023-05-19T21:57:03.484Z,100085.73
2023-05-19T21:59:52.039Z,100082.80
2023-05-19T22:02:40.746Z,100079.61
2023-05-19T22:05:30.609Z,100074.16
2023-05-19T22:08:20.674Z,100074.65
2023-05-19T22:11:09.516Z,100075.92
2023-05-19T22:13:58.295Z,100072.66
2023-05-19T22:16:47.679Z,100074.56
2023-05-19T22:19:36.326Z,100074.45
2023-05-19T22:22:24.896Z,100070.15
2023-05-19T22:25:13.421Z,100071.19
2023-05-19T22:28:02.079Z,100072.48
2023-05-19T22:30:50.710Z,100070.11
2023-05-19T22:33:39.209Z,100068.83
2023-05-19T22:36:27.756Z,100068.53
2023-05-19T22:39:16.587Z,100070.33
2023-05-19T22:42:05.456Z,100070.48
2023-05-19T22:44:53.980Z,100068.34
2023-05-19T22:47:42.719Z,100068.55
2023-05-19T22:50:31.498Z,100071.64
2023-05-19T22:53:20.004Z,100067.02
2023-05-19T22:56:08.955Z,100069.08
2023-05-19T22:58:57.478Z,100068.98
2023-05-19T23:01:46.785Z,100066.32
2023-05-19T23:04:36.354Z,100069.45
2023-05-19T23:07:25.048Z,100066.08
2023-05-19T23:10:13.629Z,100067.88
2023-05-19T23:13:02.377Z,100066.19
2023-05-19T23:15:50.983Z,100069.42
2023-05-19T23:18:39.603Z,100066.59
2023-05-19T23:21:30.411Z,100065.61
2023-05-19T23:24:19.911Z,100061.56
2023-05-19T23:27:08.682Z,100063.05
2023-05-19T23:29:57.257Z,100068.21
2023-05-19T23:32:45.861Z,100069.29
2023-05-19T23:35:34.720Z,100067.48
2023-05-19T23:38:23.534Z,100063.88
2023-05-19T23:41:12.272Z,100062.52
2023-05-19T23:44:00.855Z,100062.77
2023-05-19T23:46:49.392Z,100061.11
2023-05-19T23:49:37.966Z,100061.06
2023-05-19T23:52:26.849Z,100064.70
2023-05-19T23:55:15.628Z,100066.44
2023-05-19T23:58:04.285Z,100067.51
